• Join FlightAware (Why Join?)
  • Login
  • US Flag 
02:40AM EDT


 

Airport Tracker/Info


-or-


 

Live Flight TrackerFlight Track Log ✈ XOJ552 ✈ 02-May-2013 ✈ KLEX - KTEB

Flight Track Log - Related Links

Times and Time Zones

All times are in EDT time to prevent confusion due to time zone crossing. See the XOJ552 flight status page for this flight to view local times or setup timezone preferences in your user account.

Time Position Orientation Groundspeed Altitude Reporting Facility
EDT Latitude Longitude Course Direction KTS MPH feet Rate Location/Type
01:40PM 38.0072 -84.6375 176° South 186 214 41,000  Level Indianapolis Center
01:41PM 37.9556 -84.6328 176° South 284 327 7,500 -14,700 Descending Indianapolis Center
01:42PM 37.9494 -84.5303 94° East 293 337 10,400 4,200 Climbing Indianapolis Center
01:43PM 37.9458 -84.4061 92° East 302 348 16,200 4,560 Climbing Indianapolis Center
01:44PM 37.9414 -84.2964 93° East 307 353 19,900 3,360 Climbing Indianapolis Center
01:45PM 37.9375 -84.1794 92° East 322 371 23,200 2,700 Climbing Indianapolis Center
01:46PM 37.9322 -84.0483 93° East 359 413 25,500 2,040 Climbing Indianapolis Center
01:47PM 37.9247 -83.9061 94° East 400 460 27,500 2,040 Climbing Indianapolis Center
01:48PM 37.9192 -83.7219 92° East 439 505 29,800 1,620 Climbing Indianapolis Center
01:49PM 37.9122 -83.5614 93° East 453 521 30,900 1,380 Climbing Indianapolis Center
01:50PM 37.9056 -83.3969 93° East 464 534 32,700 2,160 Climbing Indianapolis Center
01:51PM 37.8986 -83.2339 93° East 463 533 35,400 2,040 Climbing Indianapolis Center
01:52PM 37.8917 -83.0814 93° East 440 506 37,000 720 Climbing Indianapolis Center
01:53PM 37.8844 -82.9256 93° East 443 510 37,000 1,080 Level Indianapolis Center
01:54PM 37.8753 -82.7469 94° East 437 503 39,300 1,740 Climbing Indianapolis Center
01:55PM 37.8681 -82.5986 93° East 425 489 40,700 780 Climbing Indianapolis Center
01:56PM 37.8594 -82.4481 94° East 428 493 41,000 120 Climbing Indianapolis Center
01:57PM 37.8511 -82.2919 94° East 441 507 41,000  Level Indianapolis Center
01:58PM 37.8419 -82.1211 94° East 444 511 41,000  Level Indianapolis Center
02:00PM 37.8322 -81.9536 94° East 444 511 41,000  Level Indianapolis Center
02:01PM 37.8228 -81.7978 94° East 444 511 41,000  Level Indianapolis Center
02:02PM 37.8131 -81.6408 94° East 444 511 41,000  Level Indianapolis Center
02:03PM 37.8036 -81.4836 94° East 448 516 41,000  Level Indianapolis Center
02:03PM 37.7942 -81.3658 96° East 451 519 41,000  Level Washington Center
02:04PM 37.7831 -81.2072 95° East 445 512 41,000  Level Washington Center
02:05PM 37.7847 -81.0364 89° East 445 512 41,000  Level Washington Center
02:06PM 37.7958 -80.8797 85° East 445 512 41,000  Level Washington Center
02:08PM 37.8050 -80.7197 86° East 445 512 41,000  Level Washington Center
02:09PM 37.8178 -80.5631 84° East 445 512 41,000  Level Washington Center
02:09PM 37.8261 -80.4083 86° East 440 506 41,000  Level Washington Center
02:10PM 37.8361 -80.2669 85° East 440 506 41,000  Level Washington Center
02:11PM 37.8461 -80.1150 85° East 440 506 41,000  Level Washington Center
02:12PM 37.8539 -79.9603 86° East 440 506 41,000  Level Washington Center
02:13PM 37.8656 -79.8083 84° East 440 506 41,000  Level Washington Center
02:14PM 37.8758 -79.6300 86° East 440 506 41,000  Level Washington Center
02:15PM 37.8853 -79.4700 86° East 440 506 41,000  Level Washington Center
02:16PM 37.8925 -79.3100 87° East 445 512 41,000  Level Washington Center
02:17PM 37.9036 -79.1500 85° East 450 518 41,000  Level Washington Center
02:19PM 37.9186 -78.9928 83° East 450 518 41,000  Level Washington Center
02:19PM 37.9375 -78.8331 81° East 456 525 41,000  Level Washington Center
02:20PM 37.9539 -78.6914 82° East 462 532 41,000  Level Washington Center
02:21PM 37.9725 -78.5289 82° East 462 532 41,000  Level Washington Center
02:22PM 37.9931 -78.3689 81° East 462 532 41,000  Level Washington Center
02:23PM 38.0114 -78.2061 82° East 462 532 41,000  Level Washington Center
02:25PM 38.0625 -78.0497 67° East 439 505 41,000  Level Washington Center
02:25PM 38.1319 -77.9147 57° Northeast 439 505 41,000  Level Washington Center
02:26PM 38.2014 -77.7769 57° Northeast 451 519 41,000  Level Washington Center
02:27PM 38.2683 -77.6386 58° Northeast 457 526 41,000  Level Washington Center
02:29PM 38.3375 -77.5003 57° Northeast 457 526 41,000  Level Washington Center
02:29PM 38.4042 -77.3642 58° Northeast 457 526 41,000 -300 Level Washington Center
02:30PM 38.4808 -77.2547 48° Northeast 457 526 40,500 -780 Descending Washington Center
02:31PM 38.5617 -77.1289 51° Northeast 457 526 39,500 -1,020 Descending Washington Center
02:32PM 38.6425 -77.0058 50° Northeast 447 514 38,500 -1,500 Descending Washington Center
02:34PM 38.7208 -76.8875 50° Northeast 447 514 36,500 -2,160 Descending Washington Center
02:35PM 38.7992 -76.7664 50° Northeast 442 509 34,200 -2,340 Descending Washington Center
02:36PM 38.8775 -76.6450 50° Northeast 442 509 31,900 -2,460 Descending Washington Center
02:36PM 38.9597 -76.5181 50° Northeast 447 514 29,400 -2,580 Descending Washington Center
02:37PM 39.0419 -76.3933 50° Northeast 447 514 26,900 -2,400 Descending Washington Center
02:38PM 39.1200 -76.2683 51° Northeast 447 514 24,600 -1,440 Descending Washington Center
02:39PM 39.2142 -76.1650 40° Northeast 437 503 24,000 -300 Descending Washington Center
02:41PM 39.3022 -76.0636 42° Northeast 431 496 24,000 -780 Level Washington Center
02:42PM 39.3942 -75.9783 36° Northeast 416 479 22,500 -2,100 Descending Washington Center
02:44PM 39.6000 -75.7833 36° Northeast 382 440 17,500 -2,220 Descending Philadelphia TRACON
02:45PM 39.6833 -75.7000 38° Northeast 359 413 15,400 -1,920 Descending Philadelphia TRACON
02:46PM 39.7667 -75.6333 32° Northeast 362 417 13,700 -1,200 Descending Philadelphia TRACON
02:47PM 39.8500 -75.5500 38° Northeast 356 410 13,100 -300 Descending Philadelphia TRACON
02:48PM 39.9167 -75.4833 37° Northeast 353 406 13,100  Level Philadelphia TRACON
02:49PM 40.0167 -75.4000 33° Northeast 350 403 13,100  Level Philadelphia TRACON
02:50PM 40.0833 -75.3333 37° Northeast 352 405 13,100 -180 Level Philadelphia TRACON
02:51PM 40.1667 -75.2667 31° Northeast 337 388 12,800 -780 Descending Philadelphia TRACON
02:52PM 40.2167 -75.2000 46° Northeast 283 326 11,600 -1,320 Descending Philadelphia TRACON
02:53PM 40.2833 -75.1500 30° Northeast 274 315 10,300 -1,500 Descending Philadelphia TRACON
02:53PM 40.3333 -75.1000 37° Northeast 273 314 9,100 -1,440 Descending New York TRACON
02:54PM 40.3833 -75.0333 45° Northeast 264 304 7,700 -1,440 Descending New York TRACON
02:55PM 40.4333 -74.9667 45° Northeast 263 303 6,300 -1,380 Descending New York TRACON
02:56PM 40.5000 -74.9333 21° North 262 302 5,000 -1,200 Descending New York TRACON
02:57PM 40.5667 -74.9000 21° North 258 297 4,100 -480 Descending New York TRACON
02:58PM 40.6167 -74.8500 37° Northeast 252 290 4,100  Level New York TRACON
02:59PM 40.6667 -74.7833 45° Northeast 251 289 4,100  Level New York TRACON
03:00PM 40.7167 -74.7000 52° Northeast 258 297 4,100  Level New York TRACON
03:01PM 40.7667 -74.6500 37° Northeast 260 299 4,100  Level New York TRACON
03:02PM 40.8167 -74.5833 45° Northeast 262 302 4,100  Level New York TRACON
03:03PM 40.8667 -74.5167 45° Northeast 262 302 4,100  Level New York TRACON
03:04PM 40.9167 -74.4500 45° Northeast 261 300 4,100 -60 Level New York TRACON
03:05PM 40.9500 -74.3667 62° Northeast 259 298 4,000 -600 Descending New York TRACON
03:06PM 40.9667 -74.2667 78° East 262 302 3,000 -960 Descending New York TRACON
03:07PM 41.0000 -74.1833 62° Northeast 253 291 2,100 -480 Descending New York TRACON
03:08PM 41.0167 -74.1000 75° East 243 280 2,100  Level New York TRACON
03:09PM 40.9833 -74.0500 131° Southeast 209 241 2,100 -300 Level New York TRACON
03:10PM 40.9333 -74.0500 180° South 176 203 1,600 -720 Descending New York TRACON
03:11PM 40.8833 -74.0500 180° South 139 160 800 -900 Descending New York TRACON
03:13PM 40.8500 -74.0500 167° South  Level FlightAware Approximate
03:20PM 40.8501 -74.0608 167° South  Level Estimated